INFORMAÇÕES METEOROLÓGICAS
METAR FOR SBJU
ADDS - METARS form results

(0941 UTC 14 December 2018)
Data provider http://aviationweather.gov/metar/data/
 
METAR text: SBJU 140900Z 00000KT 9999 SCT020 24/18 Q1017
Conditions at: SBJU (JUAZEIRO D NORTE, BR) observed 0900 UTC 14 December 2018
Temperature: 24.0°C (75°F)
Dewpoint: 18.0°C (64°F) [RH = 69%]
Pressure (altimeter): 30.03 inches Hg (1017.0 mb)
Winds: calm
Visibility: 6 or more miles (10+ km)
Ceiling: at least 12,000 feet AGL
Clouds: scattered clouds at 2000 feet AGL
Weather: no significant weather observed at this time

 MAPA DO AEROPORTO

 INFORMAÇÕES DA PISTA
Pista 13 Tamanho da pista 5906 ft Largura da pista 148 ft
Elevação da pista 0 ft Ranhura da pista 0 ft Proa da pista 0
Pista 31 Tamanho da pista 5906 ft Largura da pista 148 ft
Elevação da pista 0 ft Ranhura da pista 0 ft Proa da pista 0

 FREQUÊNCIAS DO AEROPORTO
Tipo AFIS Nome JUAZEIRO R Frequência 131.75 MHZ

 AUXÍLIOS DE NAVEGAÇÃO PRÓXIMOS AO AEROPORTO
Tipo NDB Nome Juazeiro Frequência 205 KHZ





Powered by Virtual Airlines Manager [v2.6.2]